createdAt,value
2022-12-26T00:01:09.584Z,59
2022-12-26T00:02:16.224Z,59
2022-12-26T00:03:23.475Z,60
2022-12-26T00:04:50.631Z,60
2022-12-26T00:05:37.515Z,60
2022-12-26T00:06:44.592Z,60
2022-12-26T00:07:51.191Z,59
2022-12-26T00:08:58.367Z,59
2022-12-26T00:10:05.379Z,59
2022-12-26T00:11:12.481Z,59
2022-12-26T00:12:19.609Z,59
2022-12-26T00:13:39.997Z,59
2022-12-26T00:14:32.854Z,59
2022-12-26T00:14:33.320Z,59
2022-12-26T00:15:40.411Z,60
2022-12-26T00:16:48.154Z,60
2022-12-26T00:17:54.659Z,60
2022-12-26T00:19:01.289Z,60
2022-12-26T00:20:08.373Z,62
2022-12-26T00:21:15.432Z,63
2022-12-26T00:22:22.513Z,64
2022-12-26T00:23:29.631Z,65
2022-12-26T00:24:39.189Z,66
2022-12-26T00:25:43.418Z,66
2022-12-26T00:26:50.558Z,67
2022-12-26T00:29:04.662Z,67
2022-12-26T00:30:11.227Z,68
2022-12-26T00:31:18.446Z,68
2022-12-26T00:32:25.481Z,69
2022-12-26T00:33:32.562Z,69
2022-12-26T00:34:39.700Z,69
2022-12-26T00:35:46.271Z,69
2022-12-26T00:36:53.357Z,69
2022-12-26T00:38:00.427Z,69
2022-12-26T00:39:07.508Z,70
2022-12-26T00:40:14.670Z,70
2022-12-26T00:41:21.246Z,70
2022-12-26T00:42:28.318Z,70
2022-12-26T00:43:35.418Z,70
2022-12-26T00:44:42.510Z,70
2022-12-26T00:45:49.620Z,70
2022-12-26T00:46:56.360Z,70
2022-12-26T00:48:03.375Z,71
2022-12-26T00:49:10.469Z,71
2022-12-26T00:50:17.622Z,71
2022-12-26T00:51:24.738Z,71
2022-12-26T00:52:31.301Z,71
2022-12-26T00:53:38.347Z,71
2022-12-26T00:54:45.457Z,71
2022-12-26T00:56:59.688Z,71
2022-12-26T00:58:06.295Z,71
2022-12-26T00:59:13.391Z,71
2022-12-26T01:00:20.498Z,71
2022-12-26T01:02:34.877Z,72
2022-12-26T01:03:41.339Z,72
2022-12-26T01:04:48.322Z,72
2022-12-26T01:05:55.570Z,72
2022-12-26T01:07:02.650Z,72
2022-12-26T01:08:23.493Z,72
2022-12-26T01:09:16.296Z,72
2022-12-26T01:10:23.374Z,72
2022-12-26T01:11:30.509Z,72
2022-12-26T01:12:37.590Z,72
2022-12-26T01:13:44.198Z,72
2022-12-26T01:14:51.303Z,72
2022-12-26T01:15:58.436Z,72
2022-12-26T01:17:05.570Z,72
2022-12-26T01:18:12.609Z,72
2022-12-26T01:19:19.175Z,73
2022-12-26T01:20:27.301Z,72
2022-12-26T01:21:33.514Z,73
2022-12-26T01:22:40.523Z,73
2022-12-26T01:24:54.202Z,73
2022-12-26T01:26:18.818Z,73
2022-12-26T01:27:08.359Z,73
2022-12-26T01:28:15.503Z,73
2022-12-26T01:29:22.586Z,73
2022-12-26T01:30:29.229Z,73
2022-12-26T01:31:36.471Z,72
2022-12-26T01:32:43.390Z,72
2022-12-26T01:33:50.551Z,72
2022-12-26T01:34:57.587Z,72
2022-12-26T01:36:04.223Z,72
2022-12-26T01:37:11.375Z,72
2022-12-26T01:38:18.407Z,72
2022-12-26T01:39:25.564Z,72
2022-12-26T01:40:32.611Z,72
2022-12-26T01:41:39.218Z,72
2022-12-26T01:42:46.369Z,72
2022-12-26T01:43:53.507Z,73
2022-12-26T01:45:00.496Z,73
2022-12-26T01:46:07.702Z,73
2022-12-26T01:47:14.305Z,73
2022-12-26T01:48:21.372Z,73
2022-12-26T01:49:28.384Z,74
2022-12-26T01:50:35.574Z,74
2022-12-26T01:53:56.473Z,74
2022-12-26T01:55:03.443Z,75
2022-12-26T01:56:10.547Z,75
2022-12-26T01:57:17.639Z,75
2022-12-26T01:58:24.235Z,75
2022-12-26T01:59:31.372Z,76
2022-12-26T02:00:38.488Z,76
2022-12-26T02:01:45.832Z,76
2022-12-26T02:02:52.931Z,76
2022-12-26T02:03:59.246Z,76
2022-12-26T02:05:06.382Z,77
2022-12-26T02:06:13.441Z,77
2022-12-26T02:07:20.589Z,77
2022-12-26T02:08:27.655Z,77
2022-12-26T02:09:34.283Z,77
2022-12-26T02:10:41.346Z,77
2022-12-26T02:11:48.517Z,77
2022-12-26T02:12:55.550Z,77
2022-12-26T02:14:02.688Z,77
2022-12-26T02:15:09.223Z,77
2022-12-26T02:16:16.442Z,77
2022-12-26T02:17:23.570Z,77
2022-12-26T02:18:30.577Z,77
2022-12-26T02:19:37.633Z,77
2022-12-26T02:20:44.299Z,77
2022-12-26T02:21:51.414Z,77
2022-12-26T02:22:58.469Z,77
2022-12-26T02:24:06.125Z,77
2022-12-26T02:25:12.716Z,77
2022-12-26T02:26:19.285Z,77
2022-12-26T02:27:26.479Z,76
2022-12-26T02:28:33.618Z,76
2022-12-26T02:29:40.607Z,76
2022-12-26T02:30:47.666Z,76
2022-12-26T02:31:54.319Z,76
2022-12-26T02:33:01.393Z,76
2022-12-26T02:34:08.468Z,76
2022-12-26T02:35:15.593Z,76
2022-12-26T02:36:22.770Z,76
2022-12-26T02:37:29.335Z,76
2022-12-26T02:38:36.406Z,76
2022-12-26T02:39:46.703Z,75
2022-12-26T02:40:50.587Z,75
2022-12-26T02:41:57.721Z,75
2022-12-26T02:43:04.250Z,75
2022-12-26T02:44:11.437Z,75
2022-12-26T02:45:18.497Z,75
2022-12-26T02:46:25.715Z,75
2022-12-26T02:47:32.744Z,74
2022-12-26T02:48:39.334Z,74
2022-12-26T02:49:46.400Z,74
2022-12-26T02:50:53.573Z,74
2022-12-26T02:52:00.689Z,74
2022-12-26T02:53:07.711Z,74
2022-12-26T02:54:14.788Z,73
2022-12-26T02:55:21.466Z,73
2022-12-26T02:56:28.531Z,73
2022-12-26T02:57:35.705Z,72
2022-12-26T02:58:42.203Z,72
2022-12-26T02:59:55.553Z,72
2022-12-26T03:00:56.475Z,72
2022-12-26T03:02:03.720Z,72
2022-12-26T03:03:10.843Z,71
2022-12-26T03:04:17.241Z,71
2022-12-26T03:05:24.329Z,71
2022-12-26T03:06:31.481Z,71
2022-12-26T03:07:38.655Z,71
2022-12-26T03:09:52.279Z,70
2022-12-26T03:10:59.324Z,70
2022-12-26T03:12:06.423Z,70
2022-12-26T03:13:13.636Z,70
2022-12-26T03:14:20.666Z,69
2022-12-26T03:15:27.246Z,69
2022-12-26T03:16:34.410Z,69
2022-12-26T03:17:41.519Z,69
2022-12-26T03:18:58.295Z,69
2022-12-26T03:19:55.691Z,69
2022-12-26T03:22:09.383Z,70
2022-12-26T03:23:16.492Z,70
2022-12-26T03:24:23.583Z,70
2022-12-26T03:25:30.681Z,70
2022-12-26T03:26:37.233Z,70
2022-12-26T03:27:44.910Z,70
2022-12-26T03:28:51.454Z,70
2022-12-26T03:29:58.559Z,70
2022-12-26T03:31:05.697Z,71
2022-12-26T03:32:12.314Z,71
2022-12-26T03:33:19.320Z,71
2022-12-26T03:34:26.463Z,71
2022-12-26T03:35:33.627Z,71
2022-12-26T03:36:40.683Z,71
2022-12-26T03:37:50.116Z,71
2022-12-26T03:38:54.411Z,71
2022-12-26T03:40:01.453Z,72
2022-12-26T03:41:08.600Z,72
2022-12-26T03:42:15.777Z,72
2022-12-26T03:43:22.314Z,72
2022-12-26T03:44:29.368Z,73
2022-12-26T03:45:36.496Z,73
2022-12-26T03:46:43.684Z,73
2022-12-26T03:47:50.737Z,73
2022-12-26T03:48:57.283Z,73
2022-12-26T03:51:11.519Z,73
2022-12-26T03:52:18.598Z,74
2022-12-26T03:53:25.699Z,74
2022-12-26T03:54:32.319Z,74
2022-12-26T03:55:39.384Z,74
2022-12-26T03:56:46.509Z,74
2022-12-26T03:57:53.603Z,74
2022-12-26T03:59:00.190Z,74
2022-12-26T04:00:07.301Z,74
2022-12-26T04:01:14.650Z,74
2022-12-26T04:02:21.788Z,74
2022-12-26T04:03:28.658Z,74
2022-12-26T04:04:35.735Z,74
2022-12-26T04:05:42.299Z,74
2022-12-26T04:06:49.451Z,74
2022-12-26T04:07:58.621Z,74
2022-12-26T04:09:03.586Z,74
2022-12-26T04:10:10.751Z,74
2022-12-26T04:11:17.298Z,74
2022-12-26T04:13:31.578Z,74
2022-12-26T04:14:39.535Z,74
2022-12-26T04:15:45.821Z,74
2022-12-26T04:16:52.320Z,74
2022-12-26T04:19:06.512Z,74
2022-12-26T04:20:13.677Z,73
2022-12-26T04:21:20.760Z,73
2022-12-26T04:22:27.331Z,73
2022-12-26T04:23:34.425Z,73
2022-12-26T04:24:41.556Z,73
2022-12-26T04:25:51.479Z,72
2022-12-26T04:26:55.336Z,72
2022-12-26T04:28:02.392Z,72
2022-12-26T04:29:09.450Z,72
2022-12-26T04:30:16.585Z,72
2022-12-26T04:31:24.278Z,71
2022-12-26T04:32:30.235Z,71
2022-12-26T04:33:37.302Z,71
2022-12-26T04:34:44.458Z,70
2022-12-26T04:35:51.608Z,70
2022-12-26T04:36:58.660Z,70
2022-12-26T04:38:05.269Z,70
2022-12-26T04:39:12.371Z,70
2022-12-26T04:40:19.420Z,70
2022-12-26T04:41:26.564Z,70
2022-12-26T04:42:33.679Z,70
2022-12-26T04:43:50.340Z,70
2022-12-26T04:44:47.339Z,70
2022-12-26T04:47:01.680Z,70
2022-12-26T04:48:08.673Z,70
2022-12-26T04:50:22.388Z,70
2022-12-26T04:51:29.468Z,70
2022-12-26T04:52:36.644Z,70
2022-12-26T04:53:46.283Z,62
2022-12-26T04:54:51.745Z,71
2022-12-26T04:55:57.355Z,71
2022-12-26T04:57:04.502Z,71
2022-12-26T04:58:11.591Z,71
2022-12-26T04:59:18.697Z,64
2022-12-26T05:00:25.292Z,72
2022-12-26T05:01:32.496Z,72
2022-12-26T05:02:39.761Z,72
2022-12-26T05:03:46.689Z,72
2022-12-26T05:04:53.732Z,72
2022-12-26T05:06:00.275Z,72
2022-12-26T05:07:07.402Z,73
2022-12-26T05:08:14.487Z,74
2022-12-26T05:09:21.576Z,74
2022-12-26T05:10:28.654Z,75
2022-12-26T05:11:35.274Z,75
2022-12-26T05:12:42.430Z,76
2022-12-26T05:14:56.636Z,77
2022-12-26T05:17:10.374Z,78
2022-12-26T05:18:17.386Z,78
2022-12-26T05:19:24.521Z,79
2022-12-26T05:20:31.615Z,79
2022-12-26T05:21:38.735Z,79
2022-12-26T05:22:45.310Z,79
2022-12-26T05:23:52.426Z,79
2022-12-26T05:24:59.470Z,79
2022-12-26T05:26:06.606Z,79
2022-12-26T05:27:13.815Z,79
2022-12-26T05:28:20.319Z,79
2022-12-26T05:29:27.407Z,80
2022-12-26T05:30:34.547Z,80
2022-12-26T05:31:41.802Z,80
2022-12-26T05:32:48.809Z,80
2022-12-26T05:33:55.314Z,80
2022-12-26T05:35:02.980Z,79
2022-12-26T05:36:09.528Z,79
2022-12-26T05:37:16.620Z,79
2022-12-26T05:38:23.738Z,79
2022-12-26T05:39:30.339Z,79
2022-12-26T05:40:37.429Z,80
2022-12-26T05:41:44.527Z,79
2022-12-26T05:42:51.853Z,79
2022-12-26T05:43:58.752Z,79
2022-12-26T05:45:05.363Z,79
2022-12-26T05:46:12.488Z,79
2022-12-26T05:47:19.516Z,79
2022-12-26T05:48:27.715Z,78
2022-12-26T05:49:33.765Z,78
2022-12-26T05:50:40.339Z,77
2022-12-26T05:51:47.418Z,77
2022-12-26T05:52:54.582Z,77
2022-12-26T05:54:01.644Z,77
2022-12-26T05:55:08.755Z,77
2022-12-26T05:56:15.366Z,77
2022-12-26T05:57:22.502Z,77
2022-12-26T05:58:29.515Z,77
2022-12-26T05:59:36.648Z,77
2022-12-26T06:00:43.768Z,77
2022-12-26T06:01:50.491Z,77
2022-12-26T06:02:57.504Z,77
2022-12-26T06:04:04.611Z,77
2022-12-26T06:05:11.700Z,78
2022-12-26T06:06:18.765Z,78
2022-12-26T06:07:25.388Z,78
2022-12-26T06:08:32.458Z,78
2022-12-26T06:09:39.578Z,79
2022-12-26T06:10:46.642Z,79
2022-12-26T06:11:53.304Z,79
2022-12-26T06:13:00.444Z,79
2022-12-26T06:14:07.465Z,79
2022-12-26T06:15:14.564Z,79
2022-12-26T06:16:22.446Z,79
2022-12-26T06:18:35.372Z,79
2022-12-26T06:20:49.595Z,79
2022-12-26T06:21:56.765Z,79
2022-12-26T06:23:03.856Z,79
2022-12-26T06:24:10.398Z,79
2022-12-26T06:25:17.468Z,79
2022-12-26T06:26:24.643Z,78
2022-12-26T06:27:31.780Z,78
2022-12-26T06:28:38.304Z,78
2022-12-26T06:29:45.434Z,78
2022-12-26T06:30:52.548Z,78
2022-12-26T06:31:59.745Z,78
2022-12-26T06:33:06.714Z,78
2022-12-26T06:34:13.276Z,78
2022-12-26T06:35:20.424Z,78
2022-12-26T06:36:27.522Z,78
2022-12-26T06:37:34.694Z,78
2022-12-26T06:38:42.274Z,78
2022-12-26T06:39:48.297Z,78
2022-12-26T06:40:55.423Z,78
2022-12-26T06:42:02.519Z,78
2022-12-26T06:43:09.624Z,78
2022-12-26T06:45:23.846Z,78
2022-12-26T06:46:30.515Z,78
2022-12-26T06:47:37.592Z,78
2022-12-26T06:48:44.618Z,78
2022-12-26T06:49:51.766Z,78
2022-12-26T06:50:58.318Z,78
2022-12-26T06:52:05.554Z,78
2022-12-26T06:53:12.527Z,77
2022-12-26T06:54:19.650Z,77
2022-12-26T06:55:26.750Z,77
2022-12-26T06:56:33.462Z,76
2022-12-26T06:57:40.423Z,76
2022-12-26T06:58:47.548Z,76
2022-12-26T06:59:54.673Z,75
2022-12-26T07:01:01.779Z,75
2022-12-26T07:02:08.522Z,75
2022-12-26T07:03:15.524Z,75
2022-12-26T07:04:22.583Z,74
2022-12-26T07:05:29.667Z,74
2022-12-26T07:06:36.844Z,73
2022-12-26T07:07:44.000Z,73
2022-12-26T07:08:50.464Z,72
2022-12-26T07:09:57.536Z,72
2022-12-26T07:11:04.653Z,72
2022-12-26T07:13:18.451Z,72
2022-12-26T07:14:25.466Z,72
2022-12-26T07:15:32.577Z,71
2022-12-26T07:16:39.738Z,71
2022-12-26T07:17:46.810Z,71
2022-12-26T07:18:53.416Z,71
2022-12-26T07:20:00.455Z,71
2022-12-26T07:21:07.543Z,71
2022-12-26T07:22:14.674Z,70
2022-12-26T07:24:28.369Z,70
2022-12-26T07:25:35.551Z,69
2022-12-26T07:26:42.602Z,69
2022-12-26T07:27:49.724Z,68
2022-12-26T07:28:56.786Z,68
2022-12-26T07:30:03.381Z,68
2022-12-26T07:31:10.587Z,68
2022-12-26T07:32:17.646Z,68
2022-12-26T07:33:24.728Z,68
2022-12-26T07:34:32.320Z,68
2022-12-26T07:35:38.365Z,68
2022-12-26T07:36:45.531Z,68
2022-12-26T07:37:52.573Z,69
2022-12-26T07:38:59.676Z,69
2022-12-26T07:41:13.394Z,69
2022-12-26T07:42:21.120Z,69
2022-12-26T07:43:27.616Z,69
2022-12-26T07:44:34.826Z,69
2022-12-26T07:46:48.410Z,69
2022-12-26T07:47:55.538Z,69
2022-12-26T07:49:02.656Z,69
2022-12-26T07:50:09.677Z,69
2022-12-26T07:51:16.311Z,69
2022-12-26T07:52:23.410Z,70
2022-12-26T07:53:30.556Z,70
2022-12-26T07:54:39.509Z,70
2022-12-26T07:55:44.712Z,70
2022-12-26T07:56:51.850Z,70
2022-12-26T07:57:58.486Z,70
2022-12-26T07:59:05.508Z,71
2022-12-26T08:00:12.588Z,71
2022-12-26T08:01:19.908Z,70
2022-12-26T08:02:26.469Z,70
2022-12-26T08:03:33.504Z,70
2022-12-26T08:04:40.558Z,70
2022-12-26T08:05:47.625Z,70
2022-12-26T08:06:54.729Z,70
2022-12-26T08:08:01.425Z,70
2022-12-26T08:09:08.418Z,70
2022-12-26T08:10:15.687Z,70
2022-12-26T08:11:22.701Z,70
2022-12-26T08:12:29.803Z,70
2022-12-26T08:13:36.336Z,70
2022-12-26T08:14:43.457Z,71
2022-12-26T08:15:50.572Z,71
2022-12-26T08:16:57.727Z,71
2022-12-26T08:18:04.726Z,71
2022-12-26T08:19:11.874Z,71
2022-12-26T08:20:18.471Z,71
2022-12-26T08:21:25.575Z,71
2022-12-26T08:22:32.738Z,71
2022-12-26T08:23:39.768Z,71
2022-12-26T08:24:46.348Z,72
2022-12-26T08:25:53.521Z,72
2022-12-26T08:28:07.695Z,72
2022-12-26T08:29:14.786Z,72
2022-12-26T08:30:21.345Z,73
2022-12-26T08:31:28.478Z,73
2022-12-26T08:32:37.277Z,74
2022-12-26T08:33:42.698Z,74
2022-12-26T08:34:49.745Z,74
2022-12-26T08:35:56.856Z,75
2022-12-26T08:37:03.498Z,75
2022-12-26T08:38:10.586Z,75
2022-12-26T08:39:17.641Z,75
2022-12-26T08:40:41.889Z,75
2022-12-26T08:41:31.899Z,75
2022-12-26T08:44:25.360Z,75
2022-12-26T08:44:52.666Z,75
2022-12-26T08:46:00.342Z,75
2022-12-26T08:47:06.449Z,75
2022-12-26T08:48:12.981Z,75
2022-12-26T08:48:13.536Z,75
2022-12-26T08:49:20.608Z,75
2022-12-26T08:50:27.655Z,75
2022-12-26T08:51:34.798Z,75
2022-12-26T08:52:41.428Z,75
2022-12-26T08:53:48.472Z,75
2022-12-26T08:54:55.643Z,75
2022-12-26T08:56:02.676Z,75
2022-12-26T08:57:09.883Z,75
2022-12-26T08:58:16.477Z,75
2022-12-26T08:59:23.523Z,74
2022-12-26T09:00:30.591Z,74
2022-12-26T09:01:37.856Z,73
2022-12-26T09:02:45.148Z,73
2022-12-26T09:03:51.420Z,73
2022-12-26T09:04:58.494Z,73
2022-12-26T09:06:06.558Z,72
2022-12-26T09:07:12.783Z,72
2022-12-26T09:08:19.814Z,72
2022-12-26T09:09:26.411Z,72
2022-12-26T09:10:33.533Z,72
2022-12-26T09:11:40.626Z,72
2022-12-26T09:12:47.687Z,72
2022-12-26T09:15:01.456Z,72
2022-12-26T09:16:08.494Z,72
2022-12-26T09:17:15.712Z,72
2022-12-26T09:18:22.778Z,72
2022-12-26T09:19:29.843Z,73
2022-12-26T09:20:36.445Z,73
2022-12-26T09:21:43.542Z,73
2022-12-26T09:22:50.630Z,73
2022-12-26T09:23:57.690Z,73
2022-12-26T09:25:04.299Z,73
2022-12-26T09:26:11.458Z,73
2022-12-26T09:27:18.600Z,74
2022-12-26T09:28:25.621Z,74
2022-12-26T09:29:32.241Z,74
2022-12-26T09:29:32.721Z,74
2022-12-26T09:31:46.431Z,74
2022-12-26T09:32:53.589Z,74
2022-12-26T09:34:00.692Z,74
2022-12-26T09:35:07.749Z,74
2022-12-26T09:36:15.257Z,74
2022-12-26T09:37:21.436Z,74
2022-12-26T09:38:28.542Z,74
2022-12-26T09:39:35.703Z,74
2022-12-26T09:40:42.787Z,74
2022-12-26T09:41:49.335Z,74
2022-12-26T09:42:56.499Z,74
2022-12-26T09:44:03.542Z,74
2022-12-26T09:45:10.778Z,74
2022-12-26T09:46:17.785Z,73
2022-12-26T09:47:24.441Z,73
2022-12-26T09:48:31.447Z,73
2022-12-26T09:49:39.037Z,73
2022-12-26T09:50:45.707Z,73
2022-12-26T09:51:52.823Z,74
2022-12-26T09:52:59.873Z,73
2022-12-26T09:54:06.461Z,73
2022-12-26T09:55:13.599Z,73
2022-12-26T09:57:01.155Z,74
2022-12-26T09:57:27.815Z,74
2022-12-26T09:58:34.403Z,74
2022-12-26T10:00:48.580Z,74
2022-12-26T10:01:55.807Z,74
2022-12-26T10:03:02.862Z,74
2022-12-26T10:04:09.395Z,74
2022-12-26T10:05:16.503Z,74
2022-12-26T10:06:23.598Z,74
2022-12-26T10:07:30.799Z,74
2022-12-26T10:08:37.776Z,74
2022-12-26T10:09:44.367Z,74
2022-12-26T10:10:51.581Z,74
2022-12-26T10:11:58.544Z,74
2022-12-26T10:13:05.787Z,74
2022-12-26T10:14:17.896Z,74
2022-12-26T10:15:19.905Z,74
2022-12-26T10:16:26.547Z,74
2022-12-26T10:17:33.645Z,75
2022-12-26T10:18:40.742Z,75
2022-12-26T10:19:47.761Z,75
2022-12-26T10:20:54.386Z,75
2022-12-26T10:22:01.601Z,75
2022-12-26T10:23:08.615Z,74
2022-12-26T10:24:15.773Z,74
2022-12-26T10:25:22.861Z,74
2022-12-26T10:26:29.412Z,74
2022-12-26T10:28:43.668Z,75
2022-12-26T10:29:50.722Z,75
2022-12-26T10:30:57.838Z,75
2022-12-26T10:32:04.442Z,75
2022-12-26T10:33:11.582Z,75
2022-12-26T10:35:25.763Z,75
2022-12-26T10:36:32.812Z,76
2022-12-26T10:37:39.452Z,75
2022-12-26T10:38:46.558Z,75
2022-12-26T10:39:53.655Z,75
2022-12-26T10:41:00.689Z,75
2022-12-26T10:43:14.447Z,75
2022-12-26T10:44:27.330Z,74
2022-12-26T10:45:28.603Z,74
2022-12-26T10:46:35.822Z,74
2022-12-26T10:47:42.863Z,74
2022-12-26T10:48:49.430Z,74
2022-12-26T10:49:56.541Z,74
2022-12-26T10:51:03.630Z,74
2022-12-26T10:52:10.786Z,74
2022-12-26T10:53:17.902Z,74
2022-12-26T10:54:24.458Z,74
2022-12-26T10:56:38.636Z,74
2022-12-26T10:57:45.757Z,74
2022-12-26T10:58:52.829Z,75
2022-12-26T10:59:59.502Z,75
2022-12-26T11:01:06.619Z,75
2022-12-26T11:02:13.748Z,75
2022-12-26T11:03:20.958Z,75
2022-12-26T11:05:02.084Z,75
2022-12-26T11:06:41.565Z,75
2022-12-26T11:07:48.684Z,75
2022-12-26T11:08:55.793Z,74
2022-12-26T11:10:02.373Z,74
2022-12-26T11:11:09.463Z,74
2022-12-26T11:12:16.551Z,74
2022-12-26T11:13:23.674Z,74
2022-12-26T11:14:33.786Z,74
2022-12-26T11:15:37.482Z,74
2022-12-26T11:16:44.504Z,74
2022-12-26T11:17:51.656Z,73
2022-12-26T11:18:58.676Z,73
2022-12-26T11:20:05.823Z,73
2022-12-26T11:21:12.901Z,73
2022-12-26T11:22:19.536Z,73
2022-12-26T11:23:26.605Z,73
2022-12-26T11:24:33.695Z,73
2022-12-26T11:25:40.804Z,73
2022-12-26T11:26:47.400Z,73
2022-12-26T11:27:54.566Z,73
2022-12-26T11:29:01.636Z,73
2022-12-26T11:30:08.695Z,73
2022-12-26T11:31:15.882Z,73
2022-12-26T11:32:22.465Z,73
2022-12-26T11:33:29.506Z,73
2022-12-26T11:34:39.650Z,73
2022-12-26T11:35:43.774Z,72
2022-12-26T11:36:50.840Z,72
2022-12-26T11:39:04.547Z,72
2022-12-26T11:40:11.593Z,72
2022-12-26T11:41:18.717Z,71
2022-12-26T11:42:25.867Z,71
2022-12-26T11:43:32.429Z,71
2022-12-26T11:44:39.673Z,71
2022-12-26T11:45:46.629Z,71
2022-12-26T11:46:53.965Z,71
2022-12-26T11:48:00.856Z,71
2022-12-26T11:49:07.917Z,71
2022-12-26T11:50:14.516Z,72
2022-12-26T11:51:21.647Z,72
2022-12-26T11:52:28.691Z,72
2022-12-26T11:53:35.823Z,72
2022-12-26T11:54:42.449Z,72
2022-12-26T11:55:49.485Z,72
2022-12-26T11:56:57.119Z,72
2022-12-26T11:59:10.940Z,72
2022-12-26T12:00:17.398Z,72
2022-12-26T12:01:24.570Z,72
2022-12-26T12:02:31.786Z,72
2022-12-26T12:03:42.321Z,72
2022-12-26T12:04:45.939Z,72
2022-12-26T12:05:52.441Z,72
2022-12-26T12:06:59.503Z,72
2022-12-26T12:08:06.640Z,72
2022-12-26T12:09:13.823Z,71
2022-12-26T12:11:27.417Z,71
2022-12-26T12:12:34.728Z,71
2022-12-26T12:13:41.691Z,71
2022-12-26T12:14:54.357Z,71
2022-12-26T12:15:55.869Z,71
2022-12-26T12:17:02.481Z,71
2022-12-26T12:18:09.584Z,71
2022-12-26T12:19:16.668Z,71
2022-12-26T12:20:23.762Z,71
2022-12-26T12:21:30.896Z,71
2022-12-26T12:22:37.512Z,71
2022-12-26T12:23:44.602Z,71
2022-12-26T12:24:51.692Z,71
2022-12-26T12:27:05.863Z,70
2022-12-26T12:28:12.555Z,70
2022-12-26T12:29:19.576Z,70
2022-12-26T12:30:26.669Z,70
2022-12-26T12:31:33.812Z,70
2022-12-26T12:32:40.892Z,70
2022-12-26T12:33:47.497Z,70
2022-12-26T12:34:54.604Z,70
2022-12-26T12:36:01.721Z,70
2022-12-26T12:37:08.820Z,70
2022-12-26T12:38:15.949Z,69
2022-12-26T12:39:22.502Z,69
2022-12-26T12:40:29.555Z,69
2022-12-26T12:41:36.678Z,69
2022-12-26T12:42:43.835Z,69
2022-12-26T12:43:50.419Z,69
2022-12-26T12:44:57.498Z,69
2022-12-26T12:46:04.665Z,69
2022-12-26T12:47:11.746Z,70
2022-12-26T12:48:18.880Z,70
2022-12-26T12:49:25.423Z,70
2022-12-26T12:50:32.535Z,70
2022-12-26T12:51:39.617Z,70
2022-12-26T12:52:46.737Z,70
2022-12-26T12:55:00.410Z,71
2022-12-26T12:57:14.596Z,71
2022-12-26T12:58:21.745Z,71
2022-12-26T12:59:28.839Z,72
2022-12-26T13:01:42.664Z,72
2022-12-26T13:02:49.746Z,72
2022-12-26T13:03:56.723Z,72
2022-12-26T13:05:03.846Z,72
2022-12-26T13:06:10.416Z,72
2022-12-26T13:07:17.469Z,73
2022-12-26T13:08:24.714Z,73
2022-12-26T13:09:31.745Z,73
2022-12-26T13:10:38.819Z,73
2022-12-26T13:11:45.432Z,73
2022-12-26T13:12:52.557Z,74
2022-12-26T13:13:59.590Z,74
2022-12-26T13:15:06.712Z,74
2022-12-26T13:16:13.905Z,74
2022-12-26T13:17:20.466Z,74
2022-12-26T13:18:27.575Z,74
2022-12-26T13:19:35.056Z,74
2022-12-26T13:20:41.729Z,74
2022-12-26T13:21:48.825Z,75
2022-12-26T13:22:55.528Z,75
2022-12-26T13:24:02.564Z,75
2022-12-26T13:25:09.713Z,75
2022-12-26T13:26:16.743Z,75
2022-12-26T13:27:23.906Z,75
2022-12-26T13:28:30.543Z,75
2022-12-26T13:29:37.514Z,76
2022-12-26T13:30:44.682Z,76
2022-12-26T13:31:51.847Z,76
2022-12-26T13:32:58.898Z,76
2022-12-26T13:34:05.501Z,76
2022-12-26T13:35:12.545Z,76
2022-12-26T13:36:19.674Z,76
2022-12-26T13:37:26.718Z,76
2022-12-26T13:39:40.461Z,76
2022-12-26T13:40:47.541Z,76
2022-12-26T13:41:54.699Z,77
2022-12-26T13:43:01.871Z,76
2022-12-26T13:44:08.877Z,77
2022-12-26T13:46:22.583Z,77
2022-12-26T13:47:29.732Z,77
2022-12-26T13:48:36.770Z,77
2022-12-26T13:50:55.729Z,77
2022-12-26T13:51:57.566Z,77
2022-12-26T13:53:04.718Z,77
2022-12-26T13:54:11.821Z,77
2022-12-26T13:55:18.879Z,77
2022-12-26T13:56:25.475Z,77
2022-12-26T13:57:32.691Z,77
2022-12-26T13:58:39.706Z,77
2022-12-26T13:59:46.786Z,77
2022-12-26T14:00:53.959Z,77
2022-12-26T14:02:06.982Z,77
2022-12-26T14:03:17.873Z,77
2022-12-26T14:04:14.849Z,77
2022-12-26T14:05:21.817Z,76
2022-12-26T14:06:28.911Z,76
2022-12-26T14:07:35.509Z,76
2022-12-26T14:08:42.602Z,77
2022-12-26T14:09:49.705Z,77
2022-12-26T14:10:56.864Z,77
2022-12-26T14:12:03.945Z,78
2022-12-26T14:13:10.586Z,79
2022-12-26T14:14:17.593Z,79
2022-12-26T14:15:24.725Z,80
2022-12-26T14:16:31.840Z,80
2022-12-26T14:18:45.543Z,79
2022-12-26T14:19:52.643Z,79
2022-12-26T14:20:59.712Z,79
2022-12-26T14:22:06.791Z,79
2022-12-26T14:23:13.514Z,79
2022-12-26T14:24:20.551Z,79
2022-12-26T14:25:27.615Z,79
2022-12-26T14:26:34.767Z,79
2022-12-26T14:27:41.857Z,79
2022-12-26T14:28:48.422Z,79
2022-12-26T14:29:55.557Z,80
2022-12-26T14:31:02.702Z,80
2022-12-26T14:32:09.703Z,80
2022-12-26T14:33:16.822Z,80
2022-12-26T14:34:23.452Z,80
2022-12-26T14:35:30.563Z,80
2022-12-26T14:36:37.633Z,80
2022-12-26T14:37:44.843Z,80
2022-12-26T14:38:51.814Z,80
2022-12-26T14:39:58.427Z,80
2022-12-26T14:41:05.533Z,80
2022-12-26T14:42:12.684Z,80
2022-12-26T14:43:19.801Z,80
2022-12-26T14:44:26.811Z,80
2022-12-26T14:45:33.428Z,80
2022-12-26T14:46:40.577Z,80
2022-12-26T14:47:47.619Z,79
2022-12-26T14:48:54.798Z,79
2022-12-26T14:50:01.990Z,80
2022-12-26T14:51:08.482Z,80
2022-12-26T14:52:15.545Z,80
2022-12-26T14:53:22.725Z,80
2022-12-26T14:54:29.754Z,80
2022-12-26T14:55:36.825Z,80
2022-12-26T14:56:43.454Z,80
2022-12-26T14:57:50.669Z,80
2022-12-26T14:58:57.625Z,80
2022-12-26T15:00:04.783Z,80
2022-12-26T15:01:12.015Z,80
2022-12-26T15:02:18.532Z,80
2022-12-26T15:03:25.644Z,80
2022-12-26T15:04:32.681Z,80
2022-12-26T15:05:39.739Z,80
2022-12-26T15:09:00.679Z,81
2022-12-26T15:10:07.651Z,81
2022-12-26T15:11:14.864Z,81
2022-12-26T15:12:21.944Z,81
2022-12-26T15:13:28.608Z,81
2022-12-26T15:14:35.627Z,81
2022-12-26T15:15:42.898Z,81
2022-12-26T15:16:49.770Z,81
2022-12-26T15:17:56.901Z,81
2022-12-26T15:19:03.442Z,81
2022-12-26T15:20:11.644Z,81
2022-12-26T15:21:17.674Z,81
2022-12-26T15:22:24.819Z,82
2022-12-26T15:23:31.956Z,81
2022-12-26T15:25:17.495Z,81
2022-12-26T15:25:45.609Z,81
2022-12-26T15:26:52.708Z,82
2022-12-26T15:27:59.838Z,82
2022-12-26T15:29:06.893Z,83
2022-12-26T15:30:13.988Z,83
2022-12-26T15:31:20.658Z,84
2022-12-26T15:32:27.679Z,84
2022-12-26T15:33:34.844Z,84
2022-12-26T15:34:41.962Z,84
2022-12-26T15:35:48.481Z,85
2022-12-26T15:36:55.617Z,85
2022-12-26T15:38:02.796Z,85
2022-12-26T15:39:09.832Z,86
2022-12-26T15:40:16.914Z,86
2022-12-26T15:41:23.532Z,86
2022-12-26T15:42:30.627Z,86
2022-12-26T15:43:37.706Z,86
2022-12-26T15:44:44.837Z,86
2022-12-26T15:45:52.056Z,86
2022-12-26T15:46:58.527Z,86
2022-12-26T15:48:06.202Z,86
2022-12-26T15:49:12.738Z,87
2022-12-26T15:50:19.815Z,87
2022-12-26T15:51:26.931Z,87
2022-12-26T15:52:33.640Z,87
2022-12-26T15:53:40.689Z,87
2022-12-26T15:54:47.719Z,87
2022-12-26T15:55:54.859Z,87
2022-12-26T15:57:01.951Z,87
2022-12-26T15:58:08.511Z,88
2022-12-26T15:59:15.639Z,88
2022-12-26T16:00:22.760Z,88
2022-12-26T16:01:30.043Z,88
2022-12-26T16:02:36.647Z,88
2022-12-26T16:03:43.551Z,88
2022-12-26T16:04:50.653Z,88
2022-12-26T16:05:57.723Z,88
2022-12-26T16:07:04.843Z,88
2022-12-26T16:08:11.504Z,88
2022-12-26T16:09:18.519Z,88
2022-12-26T16:10:25.667Z,88
2022-12-26T16:12:39.847Z,88
2022-12-26T16:13:46.466Z,88
2022-12-26T16:14:53.588Z,88
2022-12-26T16:17:07.744Z,88
2022-12-26T16:18:14.972Z,88
2022-12-26T16:19:21.467Z,88
2022-12-26T16:20:28.539Z,88
2022-12-26T16:21:35.678Z,88
2022-12-26T16:22:42.831Z,88
2022-12-26T16:23:49.863Z,88
2022-12-26T16:24:56.487Z,87
2022-12-26T16:26:03.582Z,87
2022-12-26T16:27:10.701Z,87
2022-12-26T16:28:17.832Z,87
2022-12-26T16:29:24.878Z,87
2022-12-26T16:30:31.487Z,87
2022-12-26T16:31:38.663Z,87
2022-12-26T16:32:45.739Z,87
2022-12-26T16:33:52.822Z,87
2022-12-26T16:34:59.892Z,87
2022-12-26T16:36:06.496Z,87
2022-12-26T16:37:13.603Z,88
2022-12-26T16:38:20.765Z,88
2022-12-26T16:39:27.771Z,88
2022-12-26T16:40:34.958Z,88
2022-12-26T16:41:41.504Z,88
2022-12-26T16:42:48.622Z,88
2022-12-26T16:45:02.813Z,88
2022-12-26T16:46:09.948Z,88